createdAt,value
2017-08-15T13:47:40.693Z,51.40
2017-08-15T13:49:42.132Z,51.99
2017-08-15T13:51:43.570Z,51.70
2017-08-15T13:53:45.152Z,53.35
2017-08-15T13:55:46.594Z,54.29
2017-08-15T13:58:29.029Z,52.74
2017-08-15T14:00:30.470Z,52.84
2017-08-15T14:02:31.908Z,54.49
2017-08-15T14:04:33.352Z,54.88
2017-08-15T14:06:34.796Z,54.68
2017-08-15T14:08:36.235Z,54.68
2017-08-15T14:10:37.703Z,54.75
2017-08-15T14:12:39.612Z,55.33
2017-08-15T14:14:41.054Z,55.33
2017-08-15T14:16:42.830Z,55.63
2017-08-15T14:18:44.282Z,56.50
2017-08-15T14:20:45.833Z,56.40
2017-08-15T14:22:47.345Z,56.72
2017-08-15T14:24:48.902Z,57.31
2017-08-15T14:26:50.856Z,56.40
2017-08-15T14:28:52.832Z,59.31
2017-08-15T14:30:54.343Z,57.57
2017-08-15T14:32:55.928Z,57.01
2017-08-15T14:34:57.488Z,56.21
2017-08-15T14:36:59.368Z,55.92
2017-08-15T14:39:00.900Z,55.04
2017-08-15T14:41:02.427Z,55.14
2017-08-15T14:43:45.438Z,56.30
2017-08-15T14:45:46.984Z,56.11
2017-08-15T14:47:48.419Z,56.01
2017-08-15T14:49:49.860Z,56.11
2017-08-15T14:51:51.455Z,55.82
2017-08-15T14:53:52.872Z,56.40
2017-08-15T14:55:54.312Z,56.62
2017-08-15T14:57:55.752Z,55.73
2017-08-15T14:59:57.192Z,56.52
2017-08-15T15:01:58.638Z,59.34
2017-08-15T15:04:41.059Z,54.56
2017-08-15T15:06:43.770Z,55.43
2017-08-15T15:08:45.483Z,55.53
2017-08-15T15:10:47.414Z,54.66
2017-08-15T15:12:48.845Z,55.43
2017-08-15T15:14:50.716Z,56.70
2017-08-15T15:16:52.173Z,55.92
2017-08-15T15:19:34.861Z,55.73
2017-08-15T15:21:36.301Z,56.60
2017-08-15T15:23:37.788Z,57.25
2017-08-15T15:25:39.614Z,56.67
2017-08-15T15:27:41.063Z,57.08
2017-08-15T15:29:42.495Z,56.50
2017-08-15T15:31:43.980Z,56.28
2017-08-15T15:33:45.431Z,56.18
2017-08-15T15:35:46.865Z,56.76
2017-08-15T15:37:48.317Z,57.34
2017-08-15T15:39:49.756Z,57.44
2017-08-15T15:41:51.273Z,57.54
2017-08-15T15:43:52.712Z,57.93
2017-08-15T15:45:54.151Z,58.22
2017-08-15T15:47:56.350Z,57.64
2017-08-15T15:50:37.825Z,57.34
2017-08-15T15:52:39.269Z,57.06
2017-08-15T15:54:40.713Z,58.51
2017-08-15T15:56:42.149Z,58.22
2017-08-15T15:58:43.585Z,59.06
2017-08-15T16:00:45.093Z,59.36
2017-08-15T16:02:46.562Z,59.64
2017-08-15T16:04:47.976Z,59.84
2017-08-15T16:06:49.442Z,60.52
2017-08-15T16:08:50.878Z,60.32
2017-08-15T16:10:52.320Z,60.49
2017-08-15T16:12:53.768Z,60.97
2017-08-15T16:14:55.207Z,61.55
2017-08-15T16:16:56.643Z,61.85
2017-08-15T16:18:58.149Z,62.04
2017-08-15T16:20:59.665Z,63.10
2017-08-15T16:23:01.231Z,62.88
2017-08-15T16:25:02.763Z,63.17
2017-08-15T16:27:04.736Z,63.56
2017-08-15T16:29:06.415Z,63.85
2017-08-15T16:31:07.963Z,63.56
2017-08-15T16:33:09.514Z,64.14
2017-08-15T16:35:11.053Z,64.43
2017-08-15T16:37:12.535Z,65.20
2017-08-15T16:39:14.036Z,65.11
2017-08-15T16:41:15.657Z,65.50
2017-08-15T16:43:17.206Z,65.66
2017-08-15T16:45:18.867Z,66.53
2017-08-15T16:47:22.974Z,67.40
2017-08-15T16:49:24.510Z,67.50
2017-08-15T16:51:26.129Z,68.63
2017-08-15T16:53:27.651Z,69.40
2017-08-15T16:55:29.365Z,69.01
2017-08-15T16:57:31.020Z,69.40
2017-08-15T16:59:32.580Z,69.59
2017-08-15T17:01:34.105Z,69.59
2017-08-15T17:03:35.703Z,69.79
2017-08-15T17:05:37.351Z,69.50
2017-08-15T17:07:38.917Z,70.08
2017-08-15T17:09:40.432Z,71.20
2017-08-15T17:11:41.938Z,71.40
2017-08-15T17:13:43.473Z,71.53
2017-08-15T17:15:45.058Z,71.69
2017-08-15T17:17:46.575Z,71.62
2017-08-15T17:19:48.218Z,71.78
2017-08-15T17:21:49.769Z,71.92
2017-08-15T17:23:51.357Z,70.18
2017-08-15T17:25:52.864Z,69.31
2017-08-15T17:27:54.443Z,68.15
2017-08-15T17:29:55.980Z,67.27
2017-08-15T17:31:57.552Z,67.37
2017-08-15T17:33:59.174Z,67.56
2017-08-15T17:36:00.759Z,67.46
2017-08-15T17:38:02.275Z,66.69
2017-08-15T17:40:03.893Z,68.01
2017-08-15T17:42:05.435Z,67.56
2017-08-15T17:44:06.959Z,67.27
2017-08-15T17:46:08.510Z,67.18
2017-08-15T17:48:10.000Z,67.85
2017-08-15T17:50:11.561Z,66.95
2017-08-15T17:52:13.066Z,67.05
2017-08-15T17:54:14.527Z,67.63
2017-08-15T17:56:16.044Z,67.43
2017-08-15T17:58:17.557Z,66.75
2017-08-15T18:00:19.057Z,66.27
2017-08-15T18:02:20.514Z,66.56
2017-08-15T18:04:22.051Z,66.75
2017-08-15T18:06:23.582Z,66.75
2017-08-15T18:08:25.102Z,67.05
2017-08-15T18:10:26.560Z,67.43
2017-08-15T18:12:28.167Z,67.82
2017-08-15T18:14:29.720Z,67.91
2017-08-15T18:16:31.205Z,68.69
2017-08-15T18:18:32.747Z,68.75
2017-08-15T18:20:34.288Z,68.75
2017-08-15T18:22:35.890Z,69.14
2017-08-15T18:24:37.396Z,69.04
2017-08-15T18:26:38.923Z,69.82
2017-08-15T18:28:40.572Z,70.01
2017-08-15T18:30:42.056Z,70.10
2017-08-15T18:32:43.613Z,69.92
2017-08-15T18:34:45.258Z,70.01
2017-08-15T18:36:46.853Z,70.50
2017-08-15T18:38:48.417Z,70.68
2017-08-15T18:40:50.103Z,71.75
2017-08-15T18:42:52.086Z,71.84
2017-08-15T18:44:54.042Z,72.52
2017-08-15T18:46:55.551Z,75.13
2017-08-15T18:48:57.025Z,77.07
2017-08-15T18:50:58.528Z,77.61
2017-08-15T18:53:00.057Z,78.19
2017-08-15T18:55:01.575Z,78.73
2017-08-15T18:57:03.152Z,79.70
2017-08-15T18:59:04.705Z,81.92
2017-08-15T19:01:06.262Z,82.02
2017-08-15T19:03:07.779Z,81.98
2017-08-15T19:05:09.350Z,82.46
2017-08-15T19:07:10.823Z,83.14
2017-08-15T19:09:12.369Z,83.62
2017-08-15T19:11:13.930Z,83.14
2017-08-15T19:13:15.506Z,82.79
2017-08-15T19:15:17.058Z,82.31
2017-08-15T19:17:18.566Z,82.94
2017-08-15T19:19:20.125Z,83.42
2017-08-15T19:21:21.778Z,82.94
2017-08-15T19:23:23.227Z,83.04
2017-08-15T19:25:24.731Z,82.65
2017-08-15T19:27:26.320Z,82.98
2017-08-15T19:29:27.867Z,81.98
2017-08-15T19:31:29.456Z,82.75
2017-08-15T19:33:31.272Z,82.50
2017-08-15T19:35:33.322Z,83.04
2017-08-15T19:37:34.806Z,83.08
2017-08-15T19:39:36.603Z,83.04
2017-08-15T19:41:38.110Z,82.84
2017-08-15T19:43:39.626Z,82.17
2017-08-15T19:45:41.182Z,81.88
2017-08-15T19:47:42.720Z,82.26
2017-08-15T19:49:44.336Z,81.98
2017-08-15T19:51:45.826Z,81.98
2017-08-15T19:53:47.345Z,81.68
2017-08-15T19:55:48.970Z,81.88
2017-08-15T19:57:50.546Z,81.40
2017-08-15T19:59:52.045Z,82.07
2017-08-15T20:01:53.684Z,82.13
2017-08-15T20:03:55.258Z,82.94
2017-08-15T20:05:56.954Z,83.29
2017-08-15T20:07:58.699Z,84.25
2017-08-15T20:10:00.215Z,84.41
2017-08-15T20:12:01.730Z,84.79
2017-08-15T20:14:03.212Z,84.41
2017-08-15T20:16:05.089Z,84.31
2017-08-15T20:18:06.605Z,85.46
2017-08-15T20:20:08.304Z,84.44
2017-08-15T20:22:09.898Z,84.01
2017-08-15T20:24:11.427Z,83.34
2017-08-15T20:26:12.921Z,83.34
2017-08-15T20:28:14.445Z,83.34
2017-08-15T20:30:15.978Z,83.48
2017-08-15T20:32:17.532Z,83.48
2017-08-15T20:34:19.083Z,82.81
2017-08-15T20:36:20.586Z,83.39
2017-08-15T20:39:03.235Z,83.63
2017-08-15T20:41:05.355Z,84.31
2017-08-15T20:43:06.888Z,84.31
2017-08-15T20:45:08.565Z,84.59
2017-08-15T20:47:10.029Z,84.89
2017-08-15T20:49:11.466Z,85.75
2017-08-15T20:51:12.909Z,86.10
2017-08-15T20:53:14.356Z,86.29
2017-08-15T20:55:15.797Z,87.45
2017-08-15T20:57:17.252Z,87.35
2017-08-15T20:59:18.688Z,87.35
2017-08-15T21:01:20.114Z,87.64
2017-08-15T21:03:21.544Z,87.16
2017-08-15T21:05:23.020Z,87.35
2017-08-15T21:07:24.582Z,87.26
2017-08-15T21:09:26.077Z,87.26
2017-08-15T21:11:27.537Z,86.77
2017-08-15T21:13:29.059Z,87.45
2017-08-15T21:15:30.621Z,87.35
2017-08-15T21:17:32.144Z,86.87
2017-08-15T21:19:33.831Z,86.96
2017-08-15T21:21:35.606Z,87.06
2017-08-15T21:23:37.348Z,86.58
2017-08-15T21:25:38.862Z,87.30
2017-08-15T21:27:40.373Z,87.30
2017-08-15T21:29:41.988Z,87.30
2017-08-15T21:31:43.572Z,87.21
2017-08-15T21:33:45.069Z,87.21
2017-08-15T21:35:46.617Z,86.63
2017-08-15T21:37:48.154Z,87.16
2017-08-15T21:40:30.609Z,86.92
2017-08-15T21:42:32.029Z,86.92
2017-08-15T21:44:33.508Z,86.73
2017-08-15T21:46:34.939Z,86.35
2017-08-15T21:48:36.372Z,86.73
2017-08-15T21:50:37.808Z,87.12
2017-08-15T21:52:39.234Z,87.40
2017-08-15T21:55:21.709Z,87.50
2017-08-15T21:57:23.140Z,87.21
2017-08-15T21:59:24.582Z,87.60
2017-08-15T22:01:25.996Z,87.74
2017-08-15T22:03:27.429Z,87.84
2017-08-15T22:05:29.484Z,88.13
2017-08-15T22:07:30.912Z,88.23
2017-08-15T22:09:32.341Z,88.51
2017-08-15T22:11:33.797Z,88.90
2017-08-15T22:13:35.525Z,88.51
2017-08-15T22:15:37.051Z,87.88
2017-08-15T22:17:38.735Z,88.32
2017-08-15T22:19:40.339Z,88.08
2017-08-15T22:21:42.054Z,88.04
2017-08-15T22:23:43.885Z,87.98
2017-08-15T22:25:45.339Z,88.23
2017-08-15T22:27:46.771Z,88.61
2017-08-15T22:29:48.337Z,88.51
2017-08-15T22:32:29.431Z,88.04
2017-08-15T22:34:31.108Z,88.13
2017-08-15T22:36:32.538Z,88.13
2017-08-15T22:38:34.063Z,88.13
2017-08-15T22:40:35.504Z,88.04
2017-08-15T22:42:37.182Z,87.84
2017-08-15T22:44:38.923Z,88.42
2017-08-15T22:46:40.552Z,88.13
2017-08-15T22:48:42.916Z,88.32
2017-08-15T22:50:45.375Z,88.81
2017-08-15T22:52:47.136Z,87.84
2017-08-15T22:54:49.386Z,88.13
2017-08-15T22:56:51.256Z,88.13
2017-08-15T22:59:35.002Z,88.23
2017-08-15T23:01:37.815Z,87.84
2017-08-15T23:03:40.395Z,88.51
2017-08-15T23:05:42.240Z,89.05
2017-08-15T23:07:44.551Z,89.05
2017-08-15T23:09:46.292Z,89.24
2017-08-15T23:11:47.842Z,89.29
2017-08-15T23:13:49.264Z,89.58
2017-08-15T23:16:31.722Z,89.77
2017-08-15T23:18:33.204Z,89.19
2017-08-15T23:20:34.904Z,89.00
2017-08-15T23:22:36.345Z,88.32
2017-08-15T23:24:37.962Z,88.42
2017-08-15T23:26:39.509Z,87.84
2017-08-15T23:28:41.045Z,88.23
2017-08-15T23:30:43.564Z,89.19
2017-08-15T23:32:45.207Z,89.09
2017-08-15T23:35:27.695Z,89.29
2017-08-15T23:37:29.718Z,89.19
2017-08-15T23:39:31.137Z,89.39
2017-08-15T23:41:33.414Z,89.53
2017-08-15T23:43:34.877Z,90.01
2017-08-15T23:45:36.411Z,89.92
2017-08-15T23:47:38.902Z,89.92
2017-08-15T23:49:40.639Z,89.82
2017-08-15T23:51:42.190Z,89.67
2017-08-15T23:53:44.532Z,89.39
2017-08-15T23:56:29.078Z,89.09
2017-08-15T23:58:30.994Z,89.09
